Time;durP1;ratioP1;P1;durP2;ratioP2;P2;SDS_P1;SDS_P2;PMS_P1;PMS_P2;Temp;Humidity;BMP_temperature;BMP_pressure;BME280_temperature;BME280_humidity;BME280_pressure;Samples;Min_cycle;Max_cycle;Signal;HPM_P1;HPM_P2
2022/04/27 06:17:31;;;;;;;28.00;26.45;;;10.90;67.30;;;;;;5135519;27;20383;-84
2022/04/27 06:19:58;;;;;;;1999.90;999.90;;;10.70;68.30;;;;;;5117579;27;20032;-89
2022/04/27 06:22:24;;;;;;;1999.90;999.90;;;10.90;68.70;;;;;;5089650;28;20036;-85
2022/04/27 06:24:50;;;;;;;1999.90;999.90;;;11.10;68.80;;;;;;5089375;28;20032;-86
2022/04/27 06:27:16;;;;;;;1999.90;999.90;;;11.30;68.80;;;;;;5068104;28;20035;-86
2022/04/27 06:29:42;;;;;;;1999.90;999.90;;;11.40;68.80;;;;;;5081545;28;20484;-84
2022/04/27 06:32:08;;;;;;;1999.90;999.90;;;11.60;68.60;;;;;;5061354;27;20041;-84
2022/04/27 06:34:34;;;;;;;1999.90;999.90;;;11.80;68.50;;;;;;5049665;28;20497;-82
2022/04/27 06:37:00;;;;;;;1999.90;999.90;;;11.90;68.10;;;;;;5047587;28;20060;-81
2022/04/27 06:39:26;;;;;;;1999.90;999.90;;;12.10;67.80;;;;;;5044049;28;20033;-81
2022/04/27 06:41:52;;;;;;;1999.90;999.90;;;12.20;67.60;;;;;;5044813;28;20041;-82
2022/04/27 06:44:18;;;;;;;1999.90;999.90;;;12.30;67.20;;;;;;5042390;28;20033;-81
2022/04/27 06:46:44;;;;;;;1999.90;999.90;;;12.50;67.10;;;;;;5040416;28;20045;-81
2022/04/27 06:49:11;;;;;;;1999.90;999.90;;;12.70;66.80;;;;;;5042962;28;20044;-83
2022/04/27 06:51:37;;;;;;;1999.90;999.90;;;12.80;67.20;;;;;;5025570;28;20037;-84
2022/04/27 06:54:04;;;;;;;1999.90;999.90;;;13.00;66.10;;;;;;5041444;28;20038;-79
2022/04/27 06:56:30;;;;;;;1999.90;999.90;;;13.10;65.90;;;;;;5045602;28;20053;-79
2022/04/27 06:58:56;;;;;;;1999.90;999.90;;;13.20;65.50;;;;;;5028465;28;20041;-83
2022/04/27 07:01:22;;;;;;;1999.90;999.90;;;13.30;65.20;;;;;;5042803;28;20029;-85
2022/04/27 07:03:54;;;;;;;1999.90;999.90;;;13.40;64.90;;;;;;5032721;28;20033;-85
2022/04/27 07:06:21;;;;;;;1999.90;999.90;;;13.50;64.70;;;;;;5052453;28;20376;-85
2022/04/27 07:08:48;;;;;;;1999.90;999.90;;;13.60;64.60;;;;;;5054277;28;20025;-85
2022/04/27 07:11:14;;;;;;;1999.90;999.90;;;13.60;64.30;;;;;;5030997;28;20049;-85
2022/04/27 07:13:40;;;;;;;1999.90;999.90;;;13.70;64.00;;;;;;5031458;28;20394;-85
2022/04/27 07:16:06;;;;;;;1999.90;999.90;;;13.70;63.80;;;;;;5028532;28;20033;-85
2022/04/27 07:18:32;;;;;;;1999.90;999.90;;;13.80;63.90;;;;;;5060506;28;20031;-84
2022/04/27 07:21:00;;;;;;;1999.90;999.90;;;14.00;63.60;;;;;;5038951;28;20038;-85
2022/04/27 07:23:26;;;;;;;1999.90;999.90;;;14.20;63.10;;;;;;5050264;28;20029;-84
2022/04/27 07:25:52;;;;;;;1999.90;999.90;;;14.20;62.70;;;;;;5030718;28;20232;-85
2022/04/27 07:28:19;;;;;;;1999.90;999.90;;;14.30;62.60;;;;;;5036082;28;20033;-85
2022/04/27 07:30:45;;;;;;;1999.90;999.90;;;14.40;62.40;;;;;;5014557;28;20033;-85
2022/04/27 07:33:11;;;;;;;1999.90;999.90;;;14.60;61.90;;;;;;5007483;28;20056;-86
2022/04/27 07:35:37;;;;;;;1999.90;999.90;;;14.60;61.30;;;;;;5060647;28;20389;-85
2022/04/27 07:38:04;;;;;;;1999.90;999.90;;;14.60;61.30;;;;;;5035932;28;20394;-85
2022/04/27 07:40:30;;;;;;;1999.90;999.90;;;14.70;61.50;;;;;;5026971;28;20360;-85
2022/04/27 07:42:58;;;;;;;1999.90;999.90;;;14.80;61.00;;;;;;5031386;28;20030;-84
2022/04/27 07:45:24;;;;;;;1999.90;999.90;;;14.90;60.40;;;;;;5029376;28;20034;-85
2022/04/27 07:47:50;;;;;;;1999.90;999.90;;;14.90;60.10;;;;;;5014068;28;20556;-85
2022/04/27 07:50:16;;;;;;;1999.90;999.90;;;15.00;59.70;;;;;;5029669;28;20033;-85
2022/04/27 07:52:43;;;;;;;1999.90;999.90;;;15.00;59.60;;;;;;5028345;28;20044;-85
2022/04/27 07:55:09;;;;;;;1999.90;999.90;;;15.00;59.50;;;;;;5030553;28;20045;-85
2022/04/27 07:57:35;;;;;;;1999.90;999.90;;;15.10;59.50;;;;;;5029487;28;20053;-85
2022/04/27 08:00:05;;;;;;;1999.90;999.90;;;15.30;59.30;;;;;;5029317;28;20041;-85
2022/04/27 08:02:31;;;;;;;1999.90;999.90;;;15.40;59.10;;;;;;5031464;28;20033;-85
2022/04/27 08:04:57;;;;;;;1999.90;999.90;;;15.40;58.90;;;;;;5028142;28;20033;-85
2022/04/27 08:07:24;;;;;;;1999.90;999.90;;;15.50;58.70;;;;;;5028694;28;20036;-85
2022/04/27 08:09:50;;;;;;;1999.90;999.90;;;15.60;58.40;;;;;;5028515;28;20038;-85
2022/04/27 08:12:16;;;;;;;1999.90;999.90;;;15.70;58.40;;;;;;5014305;28;20049;-85
2022/04/27 08:14:42;;;;;;;1999.90;999.90;;;15.70;58.20;;;;;;5028258;28;20037;-80
2022/04/27 08:17:08;;;;;;;1999.90;999.90;;;15.70;57.90;;;;;;5024981;28;20057;-81
2022/04/27 08:19:34;;;;;;;1999.90;999.90;;;15.70;57.90;;;;;;5026956;28;20477;-88
2022/04/27 08:22:02;;;;;;;1999.90;999.90;;;15.60;57.80;;;;;;5032349;28;20057;-85
2022/04/27 08:24:28;;;;;;;1999.90;999.90;;;15.60;57.80;;;;;;5021028;28;20049;-86
2022/04/27 08:26:54;;;;;;;1999.90;999.90;;;15.70;57.90;;;;;;5023920;28;20038;-85
2022/04/27 08:29:20;;;;;;;1999.90;999.90;;;15.90;57.70;;;;;;5030553;28;20044;-88
2022/04/27 08:31:47;;;;;;;1999.90;999.90;;;16.10;57.20;;;;;;5032780;28;20041;-82
2022/04/27 08:34:13;;;;;;;1999.90;999.90;;;16.20;57.10;;;;;;5032517;28;20021;-86
2022/04/27 08:36:39;;;;;;;1999.90;999.90;;;16.40;56.70;;;;;;5030374;28;20048;-86
2022/04/27 08:39:05;;;;;;;1999.90;999.90;;;16.50;56.60;;;;;;5030267;28;20037;-84
2022/04/27 08:41:31;;;;;;;1999.90;999.90;;;16.60;56.30;;;;;;5046485;28;20394;-86
2022/04/27 08:43:57;;;;;;;1999.90;999.90;;;16.70;55.90;;;;;;5035470;28;20033;-86
2022/04/27 08:46:24;;;;;;;1999.90;999.90;;;16.70;55.80;;;;;;5034781;28;20071;-86
2022/04/27 08:48:50;;;;;;;1999.90;999.90;;;16.80;55.60;;;;;;5024879;28;20068;-82
2022/04/27 08:51:17;;;;;;;1999.90;999.90;;;16.90;55.30;;;;;;5039952;28;20026;-81
2022/04/27 08:53:43;;;;;;;1999.90;999.90;;;17.00;55.00;;;;;;5016635;28;20057;-84
2022/04/27 08:56:09;;;;;;;1999.90;999.90;;;17.10;54.70;;;;;;5032302;28;20037;-85
2022/04/27 08:58:35;;;;;;;1999.90;999.90;;;17.20;54.40;;;;;;5027215;28;20399;-87
2022/04/27 09:01:01;;;;;;;1999.90;999.90;;;17.20;54.40;;;;;;4998404;28;20045;-86
2022/04/27 09:03:28;;;;;;;1999.90;999.90;;;17.40;54.50;;;;;;5034595;28;20036;-85
2022/04/27 09:05:55;;;;;;;1999.90;999.90;;;17.50;54.00;;;;;;5032082;28;20037;-85
2022/04/27 09:08:23;;;;;;;1999.90;999.90;;;17.50;53.60;;;;;;5029989;28;20044;-87
2022/04/27 09:10:49;;;;;;;1999.90;999.90;;;17.50;53.40;;;;;;4995304;28;20052;-85
2022/04/27 09:13:15;;;;;;;1999.90;999.90;;;17.70;53.20;;;;;;5022356;28;20044;-86
2022/04/27 09:15:42;;;;;;;1999.90;999.90;;;17.80;53.10;;;;;;5027808;28;20029;-85
2022/04/27 09:21:00;;;;;;;1999.90;999.90;;;18.10;52.60;;;;;;5040031;28;20029;-78
2022/04/27 09:23:40;;;;;;;1999.90;999.90;;;18.20;52.30;;;;;;5007057;28;20044;-81
2022/04/27 09:26:21;;;;;;;1999.90;999.90;;;18.20;52.40;;;;;;5020802;28;20033;-81
2022/04/27 09:28:50;;;;;;;1999.90;999.90;;;18.20;52.30;;;;;;5020682;28;20386;-81
2022/04/27 09:31:26;;;;;;;1999.90;999.90;;;18.30;52.10;;;;;;5022668;28;20034;-80
2022/04/27 09:34:00;;;;;;;1999.90;999.90;;;18.30;51.60;;;;;;5003575;28;20048;-82
2022/04/27 09:36:26;;;;;;;1999.90;999.90;;;18.30;51.70;;;;;;4986916;28;20052;-87
2022/04/27 09:38:53;;;;;;;1999.90;999.90;;;18.30;51.30;;;;;;5003370;28;20037;-88
2022/04/27 09:41:37;;;;;;;1999.90;999.90;;;18.20;51.00;;;;;;5021378;28;20438;-84
2022/04/27 09:44:03;;;;;;;1999.90;999.90;;;18.30;51.00;;;;;;5011601;28;20037;-82
2022/04/27 09:46:29;;;;;;;1999.90;999.90;;;18.30;50.90;;;;;;5034733;28;20040;-81
2022/04/27 09:49:02;;;;;;;1999.90;999.90;;;18.40;50.90;;;;;;5032418;28;20033;-81
2022/04/27 09:51:28;;;;;;;1999.90;999.90;;;18.50;50.80;;;;;;5034754;28;20028;-81
2022/04/27 09:53:54;;;;;;;1999.90;999.90;;;18.60;50.50;;;;;;5025125;28;20029;-80
2022/04/27 09:56:21;;;;;;;1999.90;999.90;;;18.70;50.30;;;;;;5014180;28;20049;-80
2022/04/27 09:58:47;;;;;;;1999.90;999.90;;;18.70;50.20;;;;;;5027316;28;20032;-86
2022/04/27 10:01:14;;;;;;;1999.90;999.90;;;18.70;50.20;;;;;;5028877;28;20025;-89
2022/04/27 10:03:41;;;;;;;1999.90;999.90;;;18.80;50.10;;;;;;5010151;28;20041;-85
2022/04/27 10:06:07;;;;;;;1999.90;999.90;;;18.80;49.90;;;;;;5018029;28;20046;-85
2022/04/27 10:08:38;;;;;;;1999.90;999.90;;;18.80;49.90;;;;;;5031513;28;20025;-87
2022/04/27 10:11:05;;;;;;;;;;;18.90;49.60;;;;;;5027026;28;20040;-87
2022/04/27 10:13:31;;;;;;;1999.90;999.90;;;18.90;49.40;;;;;;5036182;28;19909;-83
2022/04/27 10:15:57;;;;;;;1999.90;999.90;;;18.80;49.10;;;;;;5028051;28;20497;-84
2022/04/27 10:18:23;;;;;;;1999.90;999.90;;;18.70;49.00;;;;;;5024979;28;20038;-87
2022/04/27 10:20:51;;;;;;;1999.90;999.90;;;18.60;49.00;;;;;;5029652;28;20033;-88
2022/04/27 10:23:19;;;;;;;1999.90;999.90;;;18.60;49.10;;;;;;5029392;28;20034;-81
2022/04/27 10:26:11;;;;;;;1999.90;999.90;;;18.80;49.00;;;;;;5032945;28;20037;-83
2022/04/27 10:28:43;;;;;;;1999.90;999.90;;;18.80;48.80;;;;;;5027372;28;20034;-84
2022/04/27 10:31:09;;;;;;;1999.90;999.90;;;19.00;48.70;;;;;;5030434;28;20434;-87
2022/04/27 10:33:47;;;;;;;1999.90;999.90;;;19.00;48.60;;;;;;5010008;28;20067;-91
2022/04/27 10:36:29;;;;;;;1999.90;999.90;;;19.20;48.50;;;;;;5011353;28;20033;-84
2022/04/27 10:39:16;;;;;;;1999.90;999.90;;;19.20;48.10;;;;;;5013040;28;20045;-82
2022/04/27 10:41:48;;;;;;;1999.90;999.90;;;19.10;48.10;;;;;;5008734;28;20033;-83
2022/04/27 10:44:15;;;;;;;1999.90;999.90;;;19.00;48.30;;;;;;5028550;28;20045;-90
2022/04/27 10:46:43;;;;;;;1999.90;999.90;;;19.00;48.40;;;;;;5032872;28;20045;-85
2022/04/27 10:49:26;;;;;;;1999.90;999.90;;;18.90;48.30;;;;;;5025921;28;20041;-87
2022/04/27 10:52:08;;;;;;;1999.90;999.90;;;19.00;48.20;;;;;;5022574;28;20037;-90
2022/04/27 10:54:39;;;;;;;1999.90;999.90;;;19.20;48.30;;;;;;5027322;28;20482;-85
2022/04/27 10:57:14;;;;;;;1999.90;999.90;;;19.40;47.80;;;;;;5025733;28;20411;-87
2022/04/27 10:59:44;;;;;;;1999.90;999.90;;;19.50;47.50;;;;;;5031094;28;20655;-89
2022/04/27 11:02:35;;;;;;;1999.90;999.90;;;19.60;47.40;;;;;;5015633;28;20494;-87
2022/04/27 11:05:02;;;;;;;1999.90;999.90;;;19.80;47.20;;;;;;5032680;28;20284;-87
2022/04/27 11:07:38;;;;;;;1999.90;999.90;;;20.00;47.10;;;;;;5015198;28;20040;-85
2022/04/27 11:10:17;;;;;;;1999.90;999.90;;;20.10;46.80;;;;;;4998676;28;20053;-91
2022/04/27 11:12:48;;;;;;;1999.90;999.90;;;20.20;46.80;;;;;;5027871;28;20508;-84
2022/04/27 11:15:22;;;;;;;1999.90;999.90;;;20.20;46.30;;;;;;5028054;28;20399;-87
2022/04/27 11:17:55;;;;;;;1999.90;999.90;;;20.20;46.30;;;;;;5043292;28;20040;-88
2022/04/27 11:20:30;;;;;;;1999.90;999.90;;;20.10;46.30;;;;;;5036372;28;20040;-85
2022/04/27 11:22:56;;;;;;;1999.90;999.90;;;20.10;46.20;;;;;;5014383;28;20050;-86
2022/04/27 11:25:30;;;;;;;1999.90;999.90;;;20.00;46.10;;;;;;5044639;28;20044;-91
2022/04/27 11:27:58;;;;;;;1999.90;999.90;;;19.90;46.30;;;;;;5034466;28;20048;-85
2022/04/27 11:30:25;;;;;;;1999.90;999.90;;;19.80;46.30;;;;;;5023476;28;20391;-86
2022/04/27 11:32:51;;;;;;;1999.90;999.90;;;19.70;46.30;;;;;;5016191;28;20037;-89
2022/04/27 11:35:21;;;;;;;1999.90;999.90;;;19.70;46.40;;;;;;5029265;28;20044;-90
2022/04/27 11:37:47;;;;;;;1999.90;999.90;;;19.70;46.40;;;;;;5037487;28;20041;-88
2022/04/27 11:40:15;;;;;;;1999.90;999.90;;;19.70;46.30;;;;;;5030105;28;20030;-84
2022/04/27 11:42:46;;;;;;;1999.90;999.90;;;19.70;46.10;;;;;;5031634;28;20021;-81
2022/04/27 11:45:22;;;;;;;1999.90;999.90;;;19.70;46.10;;;;;;5027030;28;20387;-85
2022/04/27 11:48:04;;;;;;;1999.90;999.90;;;19.80;45.90;;;;;;5048804;28;20038;-88
2022/04/27 11:50:34;;;;;;;1999.90;999.90;;;19.90;45.80;;;;;;5055067;28;20040;-81
2022/04/27 11:53:11;;;;;;;1999.90;999.90;;;19.90;45.70;;;;;;5032931;28;20064;-82
2022/04/27 11:55:38;;;;;;;1999.90;999.90;;;19.90;45.70;;;;;;5015339;28;20033;-84
2022/04/27 11:58:05;;;;;;;1999.90;999.90;;;19.80;45.60;;;;;;5008068;28;20086;-77
2022/04/27 12:00:31;;;;;;;1999.90;999.90;;;19.90;45.60;;;;;;5030111;28;20049;-80
2022/04/27 12:03:07;;;;;;;1999.90;999.90;;;20.00;45.60;;;;;;5029255;28;20044;-79
2022/04/27 12:05:34;;;;;;;1999.90;999.90;;;20.10;45.50;;;;;;5044517;28;20029;-80
2022/04/27 12:08:09;;;;;;;1999.90;999.90;;;20.20;45.30;;;;;;5032090;28;20045;-81
2022/04/27 12:10:42;;;;;;;1999.90;999.90;;;20.30;45.10;;;;;;5033152;28;20036;-81
2022/04/27 12:13:09;;;;;;;1999.90;999.90;;;20.40;45.00;;;;;;5030642;28;20494;-81
2022/04/27 12:15:36;;;;;;;1999.90;999.90;;;20.60;44.90;;;;;;5032150;28;20498;-81
2022/04/27 12:18:03;;;;;;;1999.90;999.90;;;20.70;44.80;;;;;;5012529;28;20045;-81
2022/04/27 12:20:40;;;;;;;1999.90;999.90;;;20.80;44.60;;;;;;5014731;28;20398;-81
2022/04/27 12:23:14;;;;;;;1999.90;999.90;;;20.80;44.40;;;;;;5033797;28;20030;-81
2022/04/27 12:25:41;;;;;;;1999.90;999.90;;;20.70;44.10;;;;;;5028665;28;20049;-80
2022/04/27 12:28:09;;;;;;;1999.90;999.90;;;20.70;44.20;;;;;;5033407;28;20048;-80
2022/04/27 12:30:43;;;;;;;1999.90;999.90;;;20.80;44.10;;;;;;5028527;28;20375;-81
2022/04/27 12:33:11;;;;;;;1999.90;999.90;;;20.80;43.90;;;;;;5026711;28;20036;-80
2022/04/27 12:38:23;;;;;;;1999.90;999.90;;;20.80;44.00;;;;;;5033989;28;20045;-81
2022/04/27 12:40:49;;;;;;;1999.90;999.90;;;20.90;44.10;;;;;;5037376;28;20025;-81
2022/04/27 12:43:16;;;;;;;1999.90;999.90;;;20.90;43.90;;;;;;5038350;28;20029;-80
2022/04/27 12:46:03;;;;;;;1999.90;999.90;;;20.90;43.80;;;;;;5032696;28;20029;-81
2022/04/27 12:48:30;;;;;;;1999.90;999.90;;;21.00;43.80;;;;;;5008516;28;20053;-80
2022/04/27 12:50:58;;;;;;;1999.90;999.90;;;21.10;44.40;;;;;;5027156;28;20029;-79
2022/04/27 12:53:24;;;;;;;1999.90;999.90;;;21.20;43.50;;;;;;5015590;28;20045;-79
2022/04/27 12:56:08;;;;;;;1999.90;999.90;;;21.30;43.60;;;;;;5032899;28;20520;-79
2022/04/27 12:58:34;;;;;;;1999.90;999.90;;;21.30;43.40;;;;;;5027165;28;20033;-79
2022/04/27 13:01:00;;;;;;;1999.90;999.90;;;21.30;43.20;;;;;;5032680;28;20394;-79
2022/04/27 13:03:27;;;;;;;1999.90;999.90;;;21.30;43.10;;;;;;5030024;28;20055;-80
2022/04/27 13:05:53;;;;;;;1999.90;999.90;;;21.20;43.00;;;;;;5010737;28;20034;-80
2022/04/27 13:08:19;;;;;;;1999.90;999.90;;;21.30;43.00;;;;;;5014692;28;20115;-79
2022/04/27 13:13:30;;;;;;;1999.90;999.90;;;21.30;42.60;;;;;;5015507;28;20040;-79
2022/04/27 13:15:56;;;;;;;1999.90;999.90;;;21.30;42.50;;;;;;5032535;28;20497;-78
2022/04/27 13:18:23;;;;;;;1999.90;999.90;;;21.30;42.60;;;;;;5028844;28;20038;-79
2022/04/27 13:20:52;;;;;;;1999.90;999.90;;;21.30;42.40;;;;;;5025521;28;20026;-79
2022/04/27 13:23:20;;;;;;;1999.90;999.90;;;21.40;42.30;;;;;;5014895;28;20375;-79
2022/04/27 13:25:47;;;;;;;1999.90;999.90;;;21.40;42.30;;;;;;5026110;28;20030;-80
2022/04/27 13:28:13;;;;;;;1999.90;999.90;;;21.40;42.30;;;;;;5031207;28;20061;-79
2022/04/27 13:30:43;;;;;;;1999.90;999.90;;;21.40;42.20;;;;;;5030151;28;20473;-78
2022/04/27 13:33:09;;;;;;;1999.90;999.90;;;21.40;42.00;;;;;;5009015;28;20045;-78
2022/04/27 13:35:35;;;;;;;1999.90;999.90;;;21.40;42.10;;;;;;5017660;28;20040;-78
2022/04/27 13:38:02;;;;;;;1999.90;999.90;;;21.40;42.00;;;;;;5008988;28;20375;-78
2022/04/27 13:40:28;;;;;;;1999.90;999.90;;;21.40;42.00;;;;;;5025835;28;20045;-79
2022/04/27 13:42:54;;;;;;;1999.90;999.90;;;21.40;42.00;;;;;;5028844;28;20670;-78
2022/04/27 13:45:21;;;;;;;1999.90;999.90;;;21.40;41.90;;;;;;5026898;28;20048;-79
2022/04/27 13:47:47;;;;;;;1999.90;999.90;;;21.50;41.80;;;;;;5034048;28;20041;-78
2022/04/27 13:50:13;;;;;;;1999.90;999.90;;;21.50;41.70;;;;;;5023419;28;20036;-78
2022/04/27 13:52:39;;;;;;;1999.90;999.90;;;21.40;41.50;;;;;;5030925;28;20032;-78
2022/04/27 13:55:06;;;;;;;1999.90;999.90;;;21.40;41.50;;;;;;5037730;28;20026;-78
2022/04/27 13:57:32;;;;;;;1999.90;999.90;;;21.40;41.40;;;;;;5025317;28;20103;-78
2022/04/27 13:59:58;;;;;;;1999.90;999.90;;;21.40;41.30;;;;;;5019664;28;20089;-78
2022/04/27 14:02:24;;;;;;;1999.90;999.90;;;21.40;41.30;;;;;;5016211;28;20040;-79
2022/04/27 14:04:53;;;;;;;1999.90;999.90;;;21.40;41.30;;;;;;5026265;28;20081;-80
2022/04/27 14:07:19;;;;;;;1999.90;999.90;;;21.40;41.20;;;;;;5040374;28;20033;-79
2022/04/27 14:09:45;;;;;;;1999.90;999.90;;;21.40;41.20;;;;;;5038869;28;20048;-86
2022/04/27 14:14:56;;;;;;;1999.90;999.90;;;21.50;41.10;;;;;;5019026;28;20037;-86
2022/04/27 14:20:07;;;;;;;1999.90;999.90;;;21.40;41.10;;;;;;5031315;28;20049;-85
2022/04/27 14:22:33;;;;;;;1999.90;999.90;;;21.40;41.00;;;;;;5032517;28;20041;-85
2022/04/27 14:24:59;;;;;;;1999.90;999.90;;;21.40;41.10;;;;;;5029412;28;20028;-85
2022/04/27 14:27:25;;;;;;;1999.90;999.90;;;21.40;41.10;;;;;;5009848;28;20303;-86
2022/04/27 14:29:52;;;;;;;1999.90;999.90;;;21.50;41.10;;;;;;5030523;28;20386;-85
2022/04/27 14:32:18;;;;;;;1999.90;999.90;;;21.40;41.00;;;;;;5031622;28;20037;-84
2022/04/27 14:34:44;;;;;;;1999.90;999.90;;;21.40;41.00;;;;;;5028272;28;20033;-86
2022/04/27 14:37:10;;;;;;;1999.90;999.90;;;21.40;41.00;;;;;;5027096;28;20026;-85
2022/04/27 14:39:36;;;;;;;1999.90;999.90;;;21.40;40.90;;;;;;5016719;28;20041;-85
2022/04/27 14:42:03;;;;;;;1999.90;999.90;;;21.40;41.10;;;;;;5014246;28;20049;-85
2022/04/27 14:44:29;;;;;;;1999.90;999.90;;;21.30;41.10;;;;;;5014636;28;20482;-85
2022/04/27 14:46:56;;;;;;;1999.90;999.90;;;21.30;41.00;;;;;;5031240;28;20037;-85
2022/04/27 14:49:23;;;;;;;1999.90;999.90;;;21.30;41.20;;;;;;5027147;28;20037;-86
2022/04/27 14:51:49;;;;;;;1999.90;999.90;;;21.20;41.20;;;;;;5032385;28;20470;-85
2022/04/27 14:54:15;;;;;;;1999.90;999.90;;;21.20;41.20;;;;;;5031208;28;20041;-85
2022/04/27 14:56:41;;;;;;;1999.90;999.90;;;21.30;41.20;;;;;;5031838;28;20506;-85
2022/04/27 14:59:07;;;;;;;1999.90;999.90;;;21.30;41.10;;;;;;5047138;28;20041;-86
2022/04/27 15:01:34;;;;;;;1999.90;999.90;;;21.40;41.10;;;;;;5029928;28;20053;-85
2022/04/27 15:04:00;;;;;;;1999.90;999.90;;;21.50;41.00;;;;;;5031463;28;20021;-85
2022/04/27 15:06:28;;;;;;;1999.90;999.90;;;21.50;40.70;;;;;;5015676;28;20049;-86
2022/04/27 15:08:54;;;;;;;1999.90;999.90;;;21.50;40.80;;;;;;5031086;28;20033;-88
2022/04/27 15:11:20;;;;;;;1999.90;999.90;;;21.60;40.90;;;;;;5029980;28;20034;-87
2022/04/27 15:13:47;;;;;;;1999.90;999.90;;;21.60;40.80;;;;;;5015107;28;20040;-87
2022/04/27 15:16:13;;;;;;;1999.90;999.90;;;21.60;40.90;;;;;;5027528;28;20049;-88
2022/04/27 15:18:39;;;;;;;1999.90;999.90;;;21.60;40.90;;;;;;5031024;28;20513;-88
2022/04/27 15:23:51;;;;;;;1999.90;999.90;;;21.80;40.90;;;;;;5034539;28;20045;-87
2022/04/27 15:26:18;;;;;;;1999.90;999.90;;;21.80;40.70;;;;;;5011969;28;20037;-88
2022/04/27 15:28:46;;;;;;;1999.90;999.90;;;21.70;40.80;;;;;;5031376;28;20041;-88
2022/04/27 15:31:12;;;;;;;1999.90;999.90;;;21.60;40.80;;;;;;5029695;28;20052;-88
2022/04/27 15:33:38;;;;;;;1999.90;999.90;;;21.60;40.80;;;;;;5031562;28;20022;-88
2022/04/27 15:36:05;;;;;;;1999.90;999.90;;;21.60;40.70;;;;;;5022102;28;20037;-87
2022/04/27 15:38:31;;;;;;;1999.90;999.90;;;21.60;40.80;;;;;;5015020;28;20064;-87
2022/04/27 15:40:58;;;;;;;1999.90;999.90;;;21.60;40.80;;;;;;5028264;28;20037;-88
2022/04/27 15:43:24;;;;;;;1999.90;999.90;;;21.60;40.80;;;;;;5033594;28;20033;-85
2022/04/27 15:45:50;;;;;;;1999.90;999.90;;;21.60;40.80;;;;;;5027138;28;20037;-87
2022/04/27 15:48:16;;;;;;;1999.90;999.90;;;21.60;40.70;;;;;;5026752;28;20085;-84
2022/04/27 15:50:42;;;;;;;1999.90;999.90;;;21.60;40.70;;;;;;5034667;28;20029;-85
2022/04/27 15:53:09;;;;;;;1999.90;999.90;;;21.60;40.80;;;;;;5033608;28;20141;-85
2022/04/27 15:55:35;;;;;;;1999.90;999.90;;;21.70;40.90;;;;;;5060415;28;20382;-85
2022/04/27 15:58:01;;;;;;;1999.90;999.90;;;21.60;40.90;;;;;;5034630;28;20029;-85
2022/04/27 16:00:28;;;;;;;1999.90;999.90;;;21.50;41.00;;;;;;5021474;28;20034;-84
2022/04/27 16:02:54;;;;;;;1999.90;999.90;;;21.50;41.10;;;;;;5015703;28;20044;-86
2022/04/27 16:05:20;;;;;;;1999.90;999.90;;;21.40;41.10;;;;;;5029664;28;20037;-85
2022/04/27 16:07:48;;;;;;;1999.90;999.90;;;21.40;41.20;;;;;;5037137;28;20037;-85
2022/04/27 16:10:14;;;;;;;1999.90;999.90;;;21.30;41.30;;;;;;5021563;28;20037;-84
2022/04/27 16:12:42;;;;;;;1999.90;999.90;;;21.30;41.40;;;;;;5027660;28;20017;-84
2022/04/27 16:15:09;;;;;;;1999.90;999.90;;;21.30;41.50;;;;;;5012241;28;20470;-84
2022/04/27 16:17:35;;;;;;;1999.90;999.90;;;21.40;41.60;;;;;;5034964;28;20034;-85
2022/04/27 16:20:02;;;;;;;1999.90;999.90;;;21.40;41.70;;;;;;5031124;28;20474;-85
2022/04/27 16:25:13;;;;;;;1999.90;999.90;;;21.40;41.80;;;;;;5020911;28;20029;-84
2022/04/27 16:27:39;;;;;;;1999.90;999.90;;;21.40;41.90;;;;;;5028493;28;20406;-82
2022/04/27 16:30:06;;;;;;;1999.90;999.90;;;21.30;42.00;;;;;;5025202;28;20030;-84
2022/04/27 16:32:32;;;;;;;1999.90;999.90;;;21.30;42.00;;;;;;5013607;28;20033;-89
2022/04/27 16:34:58;;;;;;;1999.90;999.90;;;21.20;42.10;;;;;;5041622;28;20037;-86
2022/04/27 16:37:24;;;;;;;1999.90;999.90;;;21.30;42.30;;;;;;5034159;28;20443;-86
2022/04/27 16:39:51;;;;;;;1999.90;999.90;;;21.20;42.20;;;;;;5030823;28;20033;-85
2022/04/27 16:42:17;;;;;;;1999.90;999.90;;;21.20;42.40;;;;;;5029582;28;20462;-86
2022/04/27 16:44:45;;;;;;;1999.90;999.90;;;21.20;42.40;;;;;;5033101;28;20029;-85
2022/04/27 16:47:11;;;;;;;1999.90;999.90;;;21.10;42.50;;;;;;5016086;28;20038;-83
2022/04/27 16:49:37;;;;;;;1999.90;999.90;;;21.10;42.60;;;;;;5026553;28;20046;-82
2022/04/27 16:52:05;;;;;;;1999.90;999.90;;;21.00;42.80;;;;;;5031573;28;20032;-82
2022/04/27 16:54:32;;;;;;;1999.90;999.90;;;21.00;42.90;;;;;;5025548;28;20829;-82
2022/04/27 16:56:58;;;;;;;1999.90;999.90;;;20.90;42.90;;;;;;5027750;28;20034;-82
2022/04/27 16:59:26;;;;;;;1999.90;999.90;;;20.80;43.00;;;;;;5012538;28;20483;-86
2022/04/27 17:01:52;;;;;;;1999.90;999.90;;;20.80;43.70;;;;;;5030944;28;20044;-93
2022/04/27 17:04:19;;;;;;;1999.90;999.90;;;20.80;43.10;;;;;;5027633;28;20029;-90
2022/04/27 17:06:45;;;;;;;1999.90;999.90;;;20.80;43.20;;;;;;5032199;28;20021;-84
2022/04/27 17:09:11;;;;;;;1999.90;999.90;;;20.70;43.20;;;;;;5027390;28;20037;-87
2022/04/27 17:11:38;;;;;;;1999.90;999.90;;;20.70;43.30;;;;;;5019566;28;20033;-88
2022/04/27 17:14:04;;;;;;;1999.90;999.90;;;20.70;43.40;;;;;;5035032;28;20029;-88
2022/04/27 17:16:31;;;;;;;1999.90;999.90;;;20.60;44.00;;;;;;5030430;28;20521;-85
2022/04/27 17:18:57;;;;;;;1999.90;999.90;;;20.60;43.40;;;;;;5030743;28;20425;-84
2022/04/27 17:21:23;;;;;;;1999.90;999.90;;;20.60;43.40;;;;;;5030871;28;20558;-92
2022/04/27 17:23:50;;;;;;;1999.90;999.90;;;20.70;43.50;;;;;;5031421;28;20029;-83
2022/04/27 17:29:01;;;;;;;1999.90;999.90;;;20.60;43.60;;;;;;5022213;28;20041;-84
2022/04/27 17:31:27;;;;;;;1999.90;999.90;;;20.60;43.60;;;;;;5027715;28;20037;-80
2022/04/27 17:33:53;;;;;;;1999.90;999.90;;;20.50;43.70;;;;;;5030858;28;20028;-82
2022/04/27 17:36:19;;;;;;;1999.90;999.90;;;20.50;43.80;;;;;;5026786;28;20129;-80
2022/04/27 17:38:45;;;;;;;1999.90;999.90;;;20.40;43.70;;;;;;5030769;28;20037;-85
2022/04/27 17:41:12;;;;;;;1999.90;999.90;;;20.40;43.70;;;;;;5010258;28;20040;-79
2022/04/27 17:43:40;;;;;;;1999.90;999.90;;;20.40;43.80;;;;;;5033398;28;20040;-85
2022/04/27 17:46:07;;;;;;;1999.90;999.90;;;20.40;43.90;;;;;;5029227;28;20033;-89
2022/04/27 17:48:33;;;;;;;1999.90;999.90;;;20.30;43.90;;;;;;5014592;28;20044;-87
2022/04/27 17:50:59;;;;;;;1999.90;999.90;;;20.30;44.00;;;;;;4998570;28;20025;-86
2022/04/27 17:53:25;;;;;;;1999.90;999.90;;;20.20;44.10;;;;;;5008719;28;20029;-85
2022/04/27 17:55:52;;;;;;;1999.90;999.90;;;20.20;44.20;;;;;;5005781;28;20497;-86
2022/04/27 17:58:18;;;;;;;1999.90;999.90;;;20.10;44.20;;;;;;5021293;28;20033;-87
2022/04/27 18:00:45;;;;;;;1999.90;999.90;;;20.10;44.30;;;;;;5017809;28;20701;-85
2022/04/27 18:03:12;;;;;;;1999.90;999.90;;;20.10;44.40;;;;;;5021082;28;20037;-86
2022/04/27 18:05:39;;;;;;;1999.90;999.90;;;20.00;44.30;;;;;;5036295;28;20041;-85
2022/04/27 18:08:05;;;;;;;1999.90;999.90;;;20.00;44.40;;;;;;5008599;28;20052;-84
2022/04/27 18:10:32;;;;;;;1999.90;999.90;;;19.90;44.50;;;;;;5006386;28;20045;-83
2022/04/27 18:12:58;;;;;;;1999.90;999.90;;;19.90;44.50;;;;;;5032198;28;20025;-83
2022/04/27 18:15:46;;;;;;;1999.90;999.90;;;19.80;44.50;;;;;;5026726;28;20483;-84
2022/04/27 18:18:11;;;;;;;1999.90;999.90;;;19.80;44.60;;;;;;5023485;28;20041;-84
2022/04/27 18:20:37;;;;;;;1999.90;999.90;;;19.80;44.60;;;;;;5032522;28;20490;-84
2022/04/27 18:23:04;;;;;;;1999.90;999.90;;;19.80;44.70;;;;;;5032536;28;20048;-84
2022/04/27 18:25:30;;;;;;;1999.90;999.90;;;19.80;44.80;;;;;;5033211;28;20044;-84
2022/04/27 18:27:56;;;;;;;1999.90;999.90;;;19.70;44.80;;;;;;5031507;28;20489;-84
2022/04/27 18:30:22;;;;;;;1999.90;999.90;;;19.70;44.90;;;;;;5025903;28;20052;-83
2022/04/27 18:32:49;;;;;;;1999.90;999.90;;;19.70;44.90;;;;;;5026495;28;20029;-83
2022/04/27 18:35:18;;;;;;;1999.90;999.90;;;19.70;45.00;;;;;;5016031;28;20513;-82
2022/04/27 18:37:44;;;;;;;1999.90;999.90;;;19.60;45.00;;;;;;5035097;28;20045;-83
2022/04/27 18:40:11;;;;;;;1999.90;999.90;;;19.60;45.20;;;;;;5030350;28;20476;-83